Time;durP1;ratioP1;P1;durP2;ratioP2;P2;SDS_P1;SDS_P2;PMS_P1;PMS_P2;Temp;Humidity;BMP_temperature;BMP_pressure;BME280_temperature;BME280_humidity;BME280_pressure;Samples;Min_cycle;Max_cycle;Signal;HPM_P1;HPM_P2
2021/12/08 00:00:45;;;;;;;63.37;60.20;;;4.70;99.90;;;;;;4402866;32;20206;-67
2021/12/08 00:03:14;;;;;;;62.97;59.67;;;4.70;99.90;;;;;;4406200;32;20207;-68
2021/12/08 00:05:43;;;;;;;65.43;61.70;;;4.70;99.90;;;;;;4399198;32;20579;-67
2021/12/08 00:08:12;;;;;;;61.40;57.93;;;4.70;99.90;;;;;;4395857;32;20461;-68
2021/12/08 00:13:01;;;;;;;61.37;58.13;;;4.70;99.90;;;;;;4405133;32;20171;-66
2021/12/08 00:13:37;;;;;;;62.40;59.17;;;4.70;99.90;;;;;;4397760;32;20172;-68
2021/12/08 00:16:10;;;;;;;66.93;62.90;;;4.80;99.90;;;;;;4399081;32;20213;-68
2021/12/08 00:18:44;;;;;;;60.80;57.37;;;4.80;99.90;;;;;;4402915;32;20148;-66
2021/12/08 00:21:11;;;;;;;62.23;58.67;;;4.80;99.90;;;;;;4393113;32;20522;-69
2021/12/08 00:23:38;;;;;;;65.03;61.90;;;4.80;99.90;;;;;;4396686;32;20170;-67
2021/12/08 00:26:05;;;;;;;65.47;62.17;;;4.80;99.90;;;;;;4398589;32;20238;-67
2021/12/08 00:28:32;;;;;;;60.77;57.33;;;4.80;99.90;;;;;;4404374;32;20205;-69
2021/12/08 00:31:03;;;;;;;65.37;61.93;;;4.80;99.90;;;;;;4394334;32;20214;-69
2021/12/08 00:33:32;;;;;;;60.80;57.63;;;4.80;99.90;;;;;;4404259;32;20194;-70
2021/12/08 00:36:02;;;;;;;64.97;61.83;;;4.90;99.90;;;;;;4397030;32;20572;-70
2021/12/08 00:38:29;;;;;;;73.83;70.17;;;4.90;99.90;;;;;;4402160;32;20174;-66
2021/12/08 00:40:57;;;;;;;68.67;64.93;;;4.90;99.90;;;;;;4399926;32;20171;-70
2021/12/08 00:43:24;;;;;;;66.80;62.97;;;4.90;99.90;;;;;;4395137;32;20275;-66
2021/12/08 00:45:51;;;;;;;67.97;64.47;;;5.00;99.90;;;;;;4400111;32;20186;-68
2021/12/08 00:48:20;;;;;;;65.63;62.40;;;5.00;99.90;;;;;;4401381;32;20219;-67
2021/12/08 00:50:49;;;;;;;57.47;54.17;;;5.00;99.90;;;;;;4396009;32;20165;-71
2021/12/08 00:53:16;;;;;;;65.10;61.37;;;5.00;99.90;;;;;;4403797;32;20616;-66
2021/12/08 00:55:43;;;;;;;62.00;58.57;;;5.00;99.90;;;;;;4405304;32;20208;-68
2021/12/08 00:58:10;;;;;;;55.33;52.50;;;5.10;99.90;;;;;;4397925;32;20207;-68
2021/12/08 01:00:40;;;;;;;52.83;49.90;;;5.10;99.90;;;;;;4404395;32;20590;-67
2021/12/08 01:03:08;;;;;;;55.67;52.60;;;5.20;99.90;;;;;;4395510;32;20171;-68
2021/12/08 01:05:37;;;;;;;50.10;47.07;;;5.20;99.90;;;;;;4403137;32;20619;-68
2021/12/08 01:08:06;;;;;;;47.23;44.73;;;5.20;99.90;;;;;;4395764;32;20253;-70
2021/12/08 01:10:35;;;;;;;56.07;52.70;;;5.20;99.90;;;;;;4395958;32;20159;-68
2021/12/08 01:13:02;;;;;;;55.27;52.03;;;5.20;99.90;;;;;;4403772;32;20586;-67
2021/12/08 01:15:30;;;;;;;54.63;51.70;;;5.20;99.90;;;;;;4397115;32;20178;-67
2021/12/08 01:17:57;;;;;;;63.47;59.87;;;5.30;99.90;;;;;;4401018;32;20178;-65
2021/12/08 01:20:24;;;;;;;61.67;58.50;;;5.30;99.90;;;;;;4401013;32;20189;-69
2021/12/08 01:22:51;;;;;;;69.00;65.63;;;5.40;99.90;;;;;;4394466;32;20485;-67
2021/12/08 01:25:19;;;;;;;67.27;63.70;;;5.40;99.90;;;;;;4404462;32;20175;-66
2021/12/08 01:27:46;;;;;;;61.27;58.20;;;5.50;99.90;;;;;;4398534;32;20231;-67
2021/12/08 01:30:13;;;;;;;60.97;57.63;;;5.50;99.90;;;;;;4406076;32;20171;-67
2021/12/08 01:32:40;;;;;;;60.57;57.40;;;5.50;99.90;;;;;;4396119;32;20168;-67
2021/12/08 01:35:10;;;;;;;55.50;52.50;;;5.50;99.90;;;;;;4401936;32;20155;-67
2021/12/08 01:37:36;;;;;;;56.77;53.80;;;5.50;99.90;;;;;;4397417;32;20163;-66
2021/12/08 01:40:06;;;;;;;57.23;53.93;;;5.60;99.90;;;;;;4398235;32;20164;-67
2021/12/08 01:42:41;;;;;;;58.77;55.40;;;5.60;99.90;;;;;;4401340;32;20214;-67
2021/12/08 01:47:53;;;;;;;46.73;44.03;;;5.70;99.90;;;;;;4400822;32;20159;-67
2021/12/08 01:50:20;;;;;;;57.93;54.90;;;5.70;99.90;;;;;;4397389;32;20156;-67
2021/12/08 01:52:47;;;;;;;63.30;59.87;;;5.70;99.90;;;;;;4404435;32;20231;-67
2021/12/08 01:55:14;;;;;;;63.17;59.70;;;5.80;99.90;;;;;;4405852;32;20505;-69
2021/12/08 01:57:43;;;;;;;57.03;54.10;;;5.80;99.90;;;;;;4401964;32;20182;-69
2021/12/08 02:00:15;;;;;;;54.07;50.67;;;5.90;99.90;;;;;;4393176;32;20207;-68
2021/12/08 02:02:41;;;;;;;39.83;37.67;;;5.90;99.90;;;;;;4399716;32;20160;-68
2021/12/08 02:05:09;;;;;;;58.40;55.40;;;5.90;99.90;;;;;;4402923;32;20175;-67
2021/12/08 02:07:35;;;;;;;55.23;52.50;;;5.90;99.90;;;;;;4395883;32;20199;-67
2021/12/08 02:10:03;;;;;;;52.53;49.73;;;6.00;99.90;;;;;;4396058;32;20223;-68
2021/12/08 02:12:33;;;;;;;54.80;51.93;;;6.00;99.90;;;;;;4401463;32;20178;-68
2021/12/08 02:15:01;;;;;;;53.80;50.87;;;5.90;99.90;;;;;;4396731;32;20226;-67
2021/12/08 02:17:28;;;;;;;50.60;48.00;;;5.80;99.90;;;;;;4395156;32;20156;-67
2021/12/08 02:19:55;;;;;;;51.83;49.23;;;5.90;99.90;;;;;;4400176;32;20222;-67
2021/12/08 02:22:24;;;;;;;51.70;49.10;;;6.00;99.90;;;;;;4401387;32;20148;-67
2021/12/08 02:24:50;;;;;;;47.73;45.23;;;6.00;99.90;;;;;;4394609;32;20647;-67
2021/12/08 02:27:17;;;;;;;49.60;47.00;;;6.00;99.90;;;;;;4402399;32;20188;-68
2021/12/08 02:29:50;;;;;;;51.73;48.83;;;6.00;99.90;;;;;;4395798;32;20156;-67
2021/12/08 02:46:34;;;;;;;43.30;40.90;;;6.00;99.90;;;;;;4396051;32;20247;-68
2021/12/08 02:48:57;;;;;;;51.47;48.73;;;5.80;99.90;;;;;;4397402;32;20193;-66
2021/12/08 02:51:24;;;;;;;50.60;48.03;;;5.80;99.90;;;;;;4404632;32;20223;-68
2021/12/08 02:53:53;;;;;;;58.90;55.73;;;5.90;99.90;;;;;;4403248;32;20219;-67
2021/12/08 02:56:19;;;;;;;54.10;51.13;;;5.90;99.90;;;;;;4393009;32;20246;-69
2021/12/08 02:58:48;;;;;;;57.70;54.43;;;5.90;99.90;;;;;;4406379;32;20250;-68
2021/12/08 03:01:15;;;;;;;55.90;52.67;;;6.00;99.90;;;;;;4397098;32;20450;-69
2021/12/08 03:03:42;;;;;;;58.07;54.73;;;6.10;99.90;;;;;;4404162;32;20215;-67
2021/12/08 03:06:09;;;;;;;58.77;55.53;;;6.10;99.90;;;;;;4401382;32;20148;-69
2021/12/08 03:08:36;;;;;;;58.70;55.37;;;6.20;99.90;;;;;;4397206;32;20254;-66
2021/12/08 03:11:04;;;;;;;52.60;49.57;;;6.30;99.90;;;;;;4405197;32;20238;-67
2021/12/08 03:13:32;;;;;;;55.20;51.70;;;6.20;99.90;;;;;;4393535;32;20500;-69
2021/12/08 03:16:00;;;;;;;53.47;50.30;;;6.20;99.90;;;;;;4400033;32;20168;-67
2021/12/08 03:18:33;;;;;;;42.00;39.70;;;6.30;99.90;;;;;;4399261;32;20650;-68
2021/12/08 03:21:00;;;;;;;39.50;37.13;;;6.20;99.90;;;;;;4405021;32;20165;-69
2021/12/08 03:23:33;;;;;;;43.07;40.33;;;6.20;99.90;;;;;;4396585;32;20213;-69
2021/12/08 03:26:03;;;;;;;56.60;53.57;;;6.30;99.90;;;;;;4401807;32;20203;-69
2021/12/08 03:28:36;;;;;;;46.83;44.03;;;6.20;99.90;;;;;;4399082;32;20148;-67
2021/12/08 03:31:07;;;;;;;49.10;46.20;;;6.20;99.90;;;;;;4406479;32;20282;-66
2021/12/08 03:33:34;;;;;;;41.53;39.33;;;6.20;99.90;;;;;;4397260;32;20194;-65
2021/12/08 03:36:01;;;;;;;43.90;41.07;;;6.30;99.90;;;;;;4400154;32;20160;-67
2021/12/08 03:38:28;;;;;;;40.63;37.93;;;6.20;99.90;;;;;;4402480;32;20152;-66
2021/12/08 03:40:57;;;;;;;36.20;34.00;;;6.20;99.90;;;;;;4395006;32;20164;-67
2021/12/08 03:43:24;;;;;;;41.43;38.93;;;6.20;99.90;;;;;;4397822;32;20469;-68
2021/12/08 03:45:54;;;;;;;44.47;41.93;;;6.20;99.90;;;;;;4402211;32;20186;-66
2021/12/08 03:48:26;;;;;;;46.80;44.00;;;6.20;99.90;;;;;;4398488;32;20216;-69
2021/12/08 03:50:54;;;;;;;40.90;37.93;;;6.30;99.90;;;;;;4394664;32;20170;-65
2021/12/08 03:53:22;;;;;;;43.63;41.00;;;6.30;99.90;;;;;;4404516;32;20182;-66
2021/12/08 03:55:51;;;;;;;41.77;39.37;;;6.20;99.90;;;;;;4403305;32;20186;-66
2021/12/08 03:58:19;;;;;;;35.93;33.63;;;6.30;99.90;;;;;;4398957;32;20592;-68
2021/12/08 04:00:49;;;;;;;39.93;37.57;;;6.20;99.90;;;;;;4406043;32;20230;-68
2021/12/08 04:03:18;;;;;;;38.53;35.90;;;6.20;99.90;;;;;;4396591;32;20144;-66
2021/12/08 04:05:52;;;;;;;41.67;39.13;;;6.10;99.90;;;;;;4401391;32;20163;-68
2021/12/08 04:08:28;;;;;;;37.43;34.60;;;6.10;99.90;;;;;;4400531;32;20184;-69
2021/12/08 04:10:55;;;;;;;38.10;35.13;;;6.10;99.90;;;;;;4394381;32;20208;-67
2021/12/08 04:13:26;;;;;;;34.53;32.30;;;6.20;99.90;;;;;;4405426;32;20182;-68
2021/12/08 04:15:53;;;;;;;36.60;34.10;;;6.20;99.90;;;;;;4396212;32;20570;-68
2021/12/08 04:18:22;;;;;;;37.07;35.03;;;6.20;99.90;;;;;;4403250;32;20186;-67
2021/12/08 04:20:54;;;;;;;41.37;38.80;;;6.10;99.90;;;;;;4400198;32;20239;-68
2021/12/08 04:23:24;;;;;;;41.70;39.13;;;6.10;99.90;;;;;;4397861;32;20205;-71
2021/12/08 04:25:53;;;;;;;38.77;36.60;;;6.10;99.90;;;;;;4402488;32;20174;-65
2021/12/08 04:28:29;;;;;;;35.63;33.13;;;6.10;99.90;;;;;;4399083;32;20166;-68
2021/12/08 04:31:00;;;;;;;40.77;38.13;;;6.20;99.90;;;;;;4392479;32;20151;-69
2021/12/08 04:33:30;;;;;;;37.47;35.37;;;6.20;99.90;;;;;;4397238;32;20282;-67
2021/12/08 04:35:57;;;;;;;40.30;37.87;;;6.20;99.90;;;;;;4400481;32;20187;-69
2021/12/08 04:38:30;;;;;;;44.27;41.77;;;6.10;99.90;;;;;;4398505;32;20472;-67
2021/12/08 04:41:03;;;;;;;38.60;36.17;;;6.10;99.90;;;;;;4400928;32;20211;-68
2021/12/08 04:43:38;;;;;;;38.83;36.40;;;6.10;99.90;;;;;;4402492;32;20144;-68
2021/12/08 04:46:16;;;;;;;40.93;38.43;;;6.10;99.90;;;;;;4401215;32;20611;-69
2021/12/08 04:49:04;;;;;;;41.03;38.40;;;6.10;99.90;;;;;;4394821;32;20156;-69
2021/12/08 04:51:44;;;;;;;42.37;40.13;;;6.10;99.90;;;;;;4397735;32;20155;-68
2021/12/08 05:02:49;;;;;;;50.40;47.57;;;5.90;99.90;;;;;;4398791;32;20194;-67
2021/12/08 05:05:25;;;;;;;44.97;42.77;;;5.90;99.90;;;;;;4397983;32;20139;-66
2021/12/08 05:07:56;;;;;;;44.20;41.67;;;5.90;99.90;;;;;;4395673;32;20170;-68
2021/12/08 05:10:29;;;;;;;52.10;49.30;;;5.90;99.90;;;;;;4398400;32;20221;-69
2021/12/08 05:12:58;;;;;;;47.13;44.77;;;5.80;99.90;;;;;;4395801;32;20587;-67
2021/12/08 05:15:27;;;;;;;48.33;46.13;;;5.70;99.90;;;;;;4397811;32;20535;-68
2021/12/08 05:17:58;;;;;;;49.10;46.37;;;5.60;99.90;;;;;;4393216;32;20530;-67
2021/12/08 05:20:36;;;;;;;49.40;46.43;;;5.40;99.90;;;;;;4401119;32;20216;-68
2021/12/08 05:23:09;;;;;;;52.40;49.67;;;5.50;99.90;;;;;;4393551;32;20159;-68
2021/12/08 05:25:38;;;;;;;53.47;50.30;;;5.50;99.90;;;;;;4396831;32;20193;-67
2021/12/08 05:28:10;;;;;;;45.90;43.70;;;5.50;99.90;;;;;;4398009;32;20670;-67
2021/12/08 05:30:40;;;;;;;49.43;46.87;;;5.50;99.90;;;;;;4403747;32;20642;-67
2021/12/08 05:33:08;;;;;;;51.27;48.03;;;5.50;99.90;;;;;;4393243;32;20164;-67
2021/12/08 05:35:38;;;;;;;54.37;51.20;;;5.50;99.90;;;;;;4402079;32;20179;-66
2021/12/08 05:38:05;;;;;;;61.47;58.57;;;5.40;99.90;;;;;;4401793;32;20163;-68
2021/12/08 05:40:37;;;;;;;58.57;55.20;;;5.30;99.90;;;;;;4403667;32;20515;-68
2021/12/08 05:43:06;;;;;;;59.53;56.63;;;5.20;99.90;;;;;;4403104;32;20186;-68
2021/12/08 05:45:33;;;;;;;58.10;55.13;;;5.10;99.90;;;;;;4397022;32;20630;-68
2021/12/08 05:48:00;;;;;;;57.77;54.60;;;5.00;99.90;;;;;;4398220;32;20159;-66
2021/12/08 05:50:32;;;;;;;60.30;57.10;;;5.00;99.90;;;;;;4401023;32;20266;-65
2021/12/08 05:53:00;;;;;;;62.37;58.57;;;4.90;99.90;;;;;;4391971;32;20152;-69
2021/12/08 05:55:28;;;;;;;67.27;64.27;;;4.80;99.90;;;;;;4391597;32;20221;-66
2021/12/08 05:57:55;;;;;;;67.43;63.37;;;4.80;99.90;;;;;;4396866;32;20181;-69
2021/12/08 06:00:28;;;;;;;64.20;60.83;;;4.80;99.90;;;;;;4396107;32;20568;-69
2021/12/08 06:02:56;;;;;;;67.27;63.30;;;4.70;99.90;;;;;;4397619;32;20175;-69
2021/12/08 06:05:24;;;;;;;73.03;69.40;;;4.70;99.90;;;;;;4402006;32;20234;-69
2021/12/08 06:07:51;;;;;;;70.07;66.63;;;4.60;99.90;;;;;;4398398;32;20151;-66
2021/12/08 06:10:22;;;;;;;71.90;68.33;;;4.50;99.90;;;;;;4396178;32;20227;-67
2021/12/08 06:12:51;;;;;;;76.97;73.23;;;4.50;99.90;;;;;;4403002;32;20580;-66
2021/12/08 06:15:20;;;;;;;69.77;66.17;;;4.50;99.90;;;;;;4391889;32;20207;-65
2021/12/08 06:17:49;;;;;;;72.73;68.87;;;4.50;99.90;;;;;;4398090;32;20484;-68
2021/12/08 06:20:17;;;;;;;75.67;71.87;;;4.40;99.90;;;;;;4396274;32;20171;-68
2021/12/08 06:22:47;;;;;;;73.17;69.67;;;4.40;99.90;;;;;;4401209;32;20170;-66
2021/12/08 06:25:16;;;;;;;64.93;61.93;;;4.30;99.90;;;;;;4400636;32;20216;-66
2021/12/08 06:27:45;;;;;;;63.13;59.40;;;4.30;99.90;;;;;;4393182;32;20163;-65
2021/12/08 06:30:17;;;;;;;67.87;63.93;;;4.30;99.90;;;;;;4395476;32;20163;-66
2021/12/08 06:32:46;;;;;;;71.73;68.37;;;4.20;99.90;;;;;;4389176;32;20215;-66
2021/12/08 06:35:18;;;;;;;71.67;67.87;;;4.20;99.90;;;;;;4402850;32;20603;-65
2021/12/08 06:37:46;;;;;;;63.53;60.70;;;4.20;99.90;;;;;;4398930;32;20167;-65
2021/12/08 06:40:18;;;;;;;68.87;65.60;;;4.10;99.90;;;;;;4395980;32;20521;-65
2021/12/08 06:42:50;;;;;;;67.93;64.03;;;4.10;99.90;;;;;;4397262;32;20148;-65
2021/12/08 06:45:21;;;;;;;68.03;64.63;;;4.00;99.90;;;;;;4397948;32;20186;-67
2021/12/08 06:47:50;;;;;;;71.13;67.73;;;4.00;99.90;;;;;;4395700;32;20226;-67
2021/12/08 06:50:26;;;;;;;73.13;69.33;;;4.00;99.90;;;;;;4395475;32;20683;-68
2021/12/08 06:52:54;;;;;;;76.83;72.47;;;4.00;99.90;;;;;;4395745;32;20244;-65
2021/12/08 06:55:25;;;;;;;77.80;73.97;;;4.10;99.90;;;;;;4392783;32;20227;-69
2021/12/08 06:57:56;;;;;;;78.00;74.30;;;4.10;99.90;;;;;;4394177;32;20222;-67
2021/12/08 07:00:44;;;;;;;80.67;76.97;;;4.00;99.90;;;;;;4395154;32;20207;-68
2021/12/08 07:03:30;;;;;;;85.97;81.20;;;3.90;99.90;;;;;;4389877;32;20161;-66
2021/12/08 07:06:11;;;;;;;75.80;72.20;;;3.90;99.90;;;;;;4394577;32;20148;-66
2021/12/08 07:08:43;;;;;;;82.43;77.57;;;4.00;99.90;;;;;;4390199;32;20646;-68
2021/12/08 07:11:11;;;;;;;82.90;79.03;;;4.00;99.90;;;;;;4397340;32;20656;-67
2021/12/08 07:13:39;;;;;;;83.07;78.60;;;4.00;99.90;;;;;;4393246;32;20161;-68
2021/12/08 07:16:11;;;;;;;76.73;72.77;;;3.90;99.90;;;;;;4395902;32;20163;-66
2021/12/08 07:18:49;;;;;;;74.57;70.73;;;3.80;99.90;;;;;;4400190;32;20173;-67
2021/12/08 07:21:16;;;;;;;73.23;69.00;;;3.90;99.90;;;;;;4393752;32;20175;-66
2021/12/08 07:23:46;;;;;;;68.80;64.77;;;4.00;99.90;;;;;;4396073;32;20643;-67
2021/12/08 07:26:20;;;;;;;68.03;64.37;;;4.10;99.90;;;;;;4396556;32;20269;-67
2021/12/08 07:28:50;;;;;;;67.53;64.20;;;4.30;99.90;;;;;;4393556;32;20174;-67
2021/12/08 07:31:22;;;;;;;71.37;67.27;;;4.30;99.90;;;;;;4397122;32;20155;-67
2021/12/08 07:33:48;;;;;;;79.03;75.00;;;4.20;99.90;;;;;;4397807;32;20269;-65
2021/12/08 07:36:18;;;;;;;79.30;75.70;;;4.20;99.90;;;;;;4397983;32;20174;-65
2021/12/08 07:38:49;;;;;;;81.07;77.07;;;4.00;99.90;;;;;;4403865;32;20177;-69
2021/12/08 07:41:19;;;;;;;76.73;72.90;;;4.10;99.90;;;;;;4394826;32;20156;-68
2021/12/08 07:43:50;;;;;;;76.30;72.77;;;4.10;99.90;;;;;;4404785;32;20172;-66
2021/12/08 07:46:26;;;;;;;83.20;78.70;;;4.10;99.90;;;;;;4398054;32;20152;-66
2021/12/08 07:48:57;;;;;;;84.10;79.80;;;4.10;99.90;;;;;;4402522;32;20473;-67
2021/12/08 07:51:28;;;;;;;78.20;74.47;;;4.10;99.90;;;;;;4392606;32;20235;-69
2021/12/08 07:53:56;;;;;;;82.10;78.07;;;4.10;99.90;;;;;;4396994;32;20588;-66
2021/12/08 07:56:25;;;;;;;78.30;74.37;;;4.00;99.90;;;;;;4397879;32;20178;-69
2021/12/08 07:58:56;;;;;;;76.27;71.83;;;4.00;99.90;;;;;;4394086;32;20228;-70
2021/12/08 08:01:26;;;;;;;77.73;73.37;;;4.00;99.90;;;;;;4403923;32;20190;-65
2021/12/08 08:03:54;;;;;;;73.27;69.80;;;3.90;99.90;;;;;;4396185;32;20170;-66
2021/12/08 08:06:27;;;;;;;75.17;70.83;;;4.00;99.90;;;;;;4399019;32;20179;-65
2021/12/08 08:08:54;;;;;;;76.80;72.63;;;4.00;99.90;;;;;;4396979;32;20261;-65
2021/12/08 08:11:25;;;;;;;76.37;72.57;;;3.90;99.90;;;;;;4394266;32;20178;-65
2021/12/08 08:13:53;;;;;;;80.03;75.80;;;4.00;99.90;;;;;;4392156;32;20491;-68
2021/12/08 08:16:24;;;;;;;74.70;70.53;;;3.90;99.90;;;;;;4398946;32;20198;-66
2021/12/08 08:18:57;;;;;;;82.10;77.33;;;3.90;99.90;;;;;;4399404;32;20147;-66
2021/12/08 08:21:28;;;;;;;76.07;72.47;;;3.90;99.90;;;;;;4393804;32;20169;-66
2021/12/08 08:23:56;;;;;;;81.70;77.47;;;3.90;99.90;;;;;;4404614;32;20229;-67
2021/12/08 08:26:23;;;;;;;75.83;71.90;;;3.90;99.90;;;;;;4398702;32;20231;-66
2021/12/08 08:28:53;;;;;;;76.80;72.97;;;3.90;99.90;;;;;;4405564;32;20147;-66
2021/12/08 08:31:23;;;;;;;69.77;66.50;;;3.80;99.90;;;;;;4395339;32;20172;-67
2021/12/08 08:33:50;;;;;;;77.23;72.83;;;3.80;99.90;;;;;;4391748;32;20225;-68
2021/12/08 08:36:20;;;;;;;76.97;72.97;;;3.80;99.90;;;;;;4398478;32;20159;-66
2021/12/08 08:38:52;;;;;;;76.13;72.43;;;3.90;99.90;;;;;;4395942;32;20176;-64
2021/12/08 08:41:23;;;;;;;80.40;76.70;;;4.00;99.90;;;;;;4391709;32;20191;-65
2021/12/08 08:43:51;;;;;;;79.50;75.33;;;4.10;99.90;;;;;;4396171;32;20186;-66
2021/12/08 08:46:24;;;;;;;79.33;75.50;;;4.10;99.90;;;;;;4398950;32;20497;-69
2021/12/08 08:48:57;;;;;;;75.93;71.97;;;4.20;99.90;;;;;;4392892;32;20479;-68
2021/12/08 08:51:28;;;;;;;78.37;74.30;;;4.10;99.90;;;;;;4393781;32;20186;-67
2021/12/08 08:53:59;;;;;;;79.90;75.67;;;4.10;99.90;;;;;;4402110;32;20156;-68
2021/12/08 08:56:29;;;;;;;77.97;73.93;;;4.20;99.90;;;;;;4403561;32;20201;-66
2021/12/08 08:59:00;;;;;;;87.60;82.97;;;4.20;99.90;;;;;;4398952;32;20186;-66
2021/12/08 09:01:32;;;;;;;88.07;83.97;;;4.20;99.90;;;;;;4405536;32;20167;-65
2021/12/08 09:04:03;;;;;;;88.70;84.33;;;4.30;99.90;;;;;;4394312;32;20167;-66
2021/12/08 09:06:32;;;;;;;92.33;87.93;;;4.30;99.90;;;;;;4392046;32;20183;-65
2021/12/08 09:09:02;;;;;;;89.60;85.50;;;4.30;99.90;;;;;;4394743;32;20178;-65
2021/12/08 09:11:34;;;;;;;89.57;85.67;;;4.40;99.90;;;;;;4402883;32;20184;-65
2021/12/08 09:14:05;;;;;;;87.53;83.17;;;4.50;99.90;;;;;;4398503;32;20151;-68
2021/12/08 09:16:36;;;;;;;85.63;81.40;;;4.60;99.90;;;;;;4393414;32;20156;-65
2021/12/08 09:19:10;;;;;;;86.97;82.90;;;4.80;99.90;;;;;;4392597;32;20182;-69
2021/12/08 09:21:41;;;;;;;89.57;85.23;;;5.00;99.90;;;;;;4393257;32;20221;-67
2021/12/08 09:24:13;;;;;;;96.37;91.90;;;5.10;99.90;;;;;;4390357;32;20198;-65
2021/12/08 09:26:43;;;;;;;104.97;100.23;;;5.10;99.90;;;;;;4402856;32;20160;-70
2021/12/08 09:29:14;;;;;;;107.63;102.67;;;4.90;99.90;;;;;;4392882;32;20508;-68
2021/12/08 09:31:46;;;;;;;106.00;101.30;;;4.90;99.90;;;;;;4396157;32;20207;-65
2021/12/08 09:34:19;;;;;;;123.70;117.70;;;4.80;99.90;;;;;;4392850;32;20587;-66
2021/12/08 09:36:51;;;;;;;113.20;107.63;;;4.80;99.90;;;;;;4396133;32;20153;-66
2021/12/08 09:39:24;;;;;;;112.50;107.23;;;4.80;99.90;;;;;;4394287;32;20139;-65
2021/12/08 09:41:56;;;;;;;108.83;104.13;;;4.80;99.90;;;;;;4391510;32;20163;-65
2021/12/08 09:44:26;;;;;;;112.03;106.83;;;5.00;99.90;;;;;;4395629;32;20160;-68
2021/12/08 09:46:55;;;;;;;113.20;107.70;;;5.20;99.90;;;;;;4401569;32;20159;-68
2021/12/08 09:49:25;;;;;;;111.43;106.47;;;5.20;99.90;;;;;;4390292;32;20155;-68
2021/12/08 09:51:53;;;;;;;117.03;111.93;;;5.20;99.90;;;;;;4395712;32;20582;-67
2021/12/08 09:54:20;;;;;;;116.20;111.00;;;5.10;99.90;;;;;;4397490;32;20205;-65
2021/12/08 09:56:50;;;;;;;114.13;108.77;;;5.10;99.90;;;;;;4401084;32;20148;-67
2021/12/08 09:59:18;;;;;;;115.77;110.77;;;5.10;99.90;;;;;;4401596;32;20243;-67
2021/12/08 10:01:45;;;;;;;128.33;122.70;;;5.10;99.90;;;;;;4390526;32;20152;-65
2021/12/08 10:04:15;;;;;;;124.57;118.73;;;5.10;99.90;;;;;;4395841;32;20179;-66
2021/12/08 10:06:49;;;;;;;118.27;113.13;;;5.10;99.90;;;;;;4399518;32;20143;-67
2021/12/08 10:09:18;;;;;;;119.53;114.07;;;5.20;99.90;;;;;;4393501;32;20182;-66
2021/12/08 10:11:45;;;;;;;116.43;111.03;;;5.10;99.90;;;;;;4394328;32;20170;-66
2021/12/08 10:14:12;;;;;;;117.53;112.50;;;5.20;99.90;;;;;;4390383;32;20194;-68
2021/12/08 10:16:39;;;;;;;113.60;108.27;;;5.30;99.90;;;;;;4401943;32;20591;-68
2021/12/08 10:19:07;;;;;;;110.60;105.97;;;5.60;99.90;;;;;;4394280;32;20148;-68
2021/12/08 10:21:38;;;;;;;106.07;101.37;;;5.90;99.90;;;;;;4401910;32;20190;-68
2021/12/08 10:24:15;;;;;;;107.40;102.23;;;6.30;99.90;;;;;;4327010;32;2079948;-68
2021/12/08 10:26:42;;;;;;;105.57;100.63;;;6.50;99.90;;;;;;4395955;32;20182;-69
2021/12/08 10:29:09;;;;;;;103.03;98.23;;;6.70;99.90;;;;;;4403193;32;20254;-69
2021/12/08 10:31:42;;;;;;;93.23;89.23;;;6.70;99.90;;;;;;4396301;32;20572;-69
2021/12/08 10:34:21;;;;;;;92.53;88.10;;;6.80;99.90;;;;;;4396695;32;20194;-69
2021/12/08 10:36:53;;;;;;;90.03;85.97;;;6.80;99.90;;;;;;4401540;32;20176;-69
2021/12/08 10:39:33;;;;;;;94.80;90.77;;;6.80;99.90;;;;;;4389872;32;20256;-69
2021/12/08 10:42:11;;;;;;;92.73;88.53;;;6.90;99.90;;;;;;4391780;32;20499;-68
2021/12/08 10:44:44;;;;;;;99.83;95.73;;;6.90;99.90;;;;;;4394144;32;20180;-68
2021/12/08 10:47:14;;;;;;;100.03;95.60;;;6.90;99.90;;;;;;4395108;32;20194;-68
2021/12/08 10:55:18;;;;;;;93.17;89.03;;;6.90;99.90;;;;;;4394799;32;20190;-68
2021/12/08 10:57:47;;;;;;;100.20;95.60;;;7.00;99.90;;;;;;4392380;32;20512;-69
2021/12/08 11:00:18;;;;;;;91.27;87.17;;;6.80;99.90;;;;;;4393842;32;20156;-68
2021/12/08 11:02:50;;;;;;;93.50;88.97;;;6.70;99.90;;;;;;4395007;32;20164;-68
2021/12/08 11:05:41;;;;;;;90.00;86.10;;;6.60;99.90;;;;;;4393307;32;20484;-68
2021/12/08 11:08:15;;;;;;;90.80;86.87;;;6.80;99.90;;;;;;4395474;32;20544;-70
2021/12/08 11:10:46;;;;;;;94.03;89.83;;;7.10;99.90;;;;;;4394413;32;20181;-68
2021/12/08 11:13:15;;;;;;;70.83;67.50;;;7.20;99.90;;;;;;4396799;32;20595;-70
2021/12/08 11:15:43;;;;;;;70.83;67.53;;;7.20;99.90;;;;;;4398393;32;20174;-70
2021/12/08 11:18:21;;;;;;;70.00;66.40;;;7.30;99.90;;;;;;4400525;32;20175;-70
2021/12/08 11:20:52;;;;;;;60.20;57.47;;;7.30;99.90;;;;;;4392538;32;20194;-67
2021/12/08 11:23:41;;;;;;;52.43;49.83;;;7.40;99.90;;;;;;4393081;32;20279;-68
2021/12/08 11:26:14;;;;;;;52.80;50.30;;;7.40;99.90;;;;;;4392821;32;20520;-69
2021/12/08 11:28:41;;;;;;;51.23;48.93;;;7.30;99.90;;;;;;4393448;32;20175;-70
2021/12/08 11:31:11;;;;;;;51.20;48.50;;;7.40;99.90;;;;;;4402603;32;20215;-68
2021/12/08 11:33:42;;;;;;;44.13;42.10;;;7.40;99.90;;;;;;4396745;32;20576;-68
2021/12/08 11:36:16;;;;;;;46.13;43.73;;;7.20;99.90;;;;;;4391576;32;20622;-67
2021/12/08 11:38:46;;;;;;;48.60;46.03;;;6.90;99.90;;;;;;4397342;32;20219;-68
2021/12/08 11:41:34;;;;;;;50.40;47.83;;;7.00;99.90;;;;;;4392764;32;20491;-70
2021/12/08 11:44:03;;;;;;;53.73;51.23;;;7.00;99.90;;;;;;4392637;32;20281;-69
2021/12/08 11:46:33;;;;;;;50.07;47.27;;;6.80;99.90;;;;;;4392870;32;20219;-68
2021/12/08 11:49:07;;;;;;;50.60;48.17;;;6.60;99.90;;;;;;4399683;32;20194;-69
2021/12/08 11:51:49;;;;;;;54.43;51.77;;;6.50;99.90;;;;;;4394451;32;20159;-70
2021/12/08 11:54:32;;;;;;;54.23;51.37;;;6.50;99.90;;;;;;4394970;32;20168;-67
2021/12/08 11:57:10;;;;;;;59.17;56.37;;;6.40;99.90;;;;;;4397339;32;20159;-69
2021/12/08 11:59:54;;;;;;;54.87;52.07;;;6.30;99.90;;;;;;4390897;32;20168;-67
2021/12/08 12:02:21;;;;;;;55.63;53.03;;;6.20;99.90;;;;;;4390957;32;20601;-67
2021/12/08 12:04:49;;;;;;;60.57;57.77;;;6.20;99.90;;;;;;4392884;32;20165;-70
2021/12/08 12:07:16;;;;;;;64.97;62.00;;;6.10;99.90;;;;;;4392554;32;20167;-69
2021/12/08 12:09:46;;;;;;;61.50;58.53;;;6.10;99.90;;;;;;4393915;32;20159;-69
2021/12/08 12:12:14;;;;;;;70.77;67.27;;;6.10;99.90;;;;;;4393340;32;20584;-68
2021/12/08 12:14:42;;;;;;;76.63;73.17;;;6.10;99.90;;;;;;4394006;32;20660;-69
2021/12/08 12:17:10;;;;;;;68.13;64.93;;;6.20;99.90;;;;;;4396606;32;20663;-71
2021/12/08 12:19:47;;;;;;;65.00;61.87;;;6.10;99.90;;;;;;4406652;32;20151;-72
2021/12/08 12:22:28;;;;;;;69.03;65.93;;;6.10;99.90;;;;;;4399861;32;20177;-69
2021/12/08 12:25:14;;;;;;;71.63;68.13;;;6.20;99.90;;;;;;4391847;32;20210;-72
2021/12/08 12:27:46;;;;;;;66.00;62.90;;;6.20;99.90;;;;;;4391756;32;20225;-72
2021/12/08 12:30:22;;;;;;;71.07;67.87;;;6.20;99.90;;;;;;4393921;32;20179;-70
2021/12/08 12:32:50;;;;;;;74.50;71.10;;;6.30;99.90;;;;;;4391782;32;20612;-73
2021/12/08 12:35:21;;;;;;;71.30;67.97;;;6.30;99.90;;;;;;4393566;32;20160;-70
2021/12/08 12:37:50;;;;;;;71.80;68.50;;;6.50;99.90;;;;;;4404707;32;20178;-70
2021/12/08 12:40:29;;;;;;;72.00;68.47;;;6.50;99.90;;;;;;4397961;32;20155;-70
2021/12/08 12:42:58;;;;;;;68.00;64.77;;;6.50;99.90;;;;;;4391675;32;20238;-71
2021/12/08 12:45:34;;;;;;;66.70;63.30;;;6.60;99.90;;;;;;4393147;32;20164;-70
2021/12/08 12:48:17;;;;;;;69.53;66.07;;;6.60;99.90;;;;;;4391650;32;20164;-69
2021/12/08 12:51:03;;;;;;;69.37;66.23;;;6.60;99.90;;;;;;4402640;32;20163;-69
2021/12/08 12:53:35;;;;;;;64.10;61.17;;;6.50;99.90;;;;;;4405644;32;20178;-69
2021/12/08 12:56:04;;;;;;;68.23;65.23;;;6.50;99.90;;;;;;4393857;32;20180;-69
2021/12/08 12:58:47;;;;;;;60.60;57.80;;;6.50;99.90;;;;;;4399745;32;20218;-70
2021/12/08 13:01:16;;;;;;;63.90;60.77;;;6.60;99.90;;;;;;4400100;32;20475;-70
2021/12/08 13:03:53;;;;;;;65.47;62.07;;;6.70;99.90;;;;;;4391224;32;20170;-69
2021/12/08 13:06:42;;;;;;;62.33;59.33;;;6.90;99.90;;;;;;4393281;32;20167;-69
2021/12/08 13:09:11;;;;;;;58.87;55.60;;;7.00;99.90;;;;;;4397870;32;20186;-71
2021/12/08 13:11:59;;;;;;;55.93;53.00;;;7.00;99.90;;;;;;4394071;32;20160;-69
2021/12/08 13:14:30;;;;;;;63.73;60.73;;;7.00;99.90;;;;;;4404940;32;20211;-71
2021/12/08 13:17:18;;;;;;;61.57;58.27;;;6.90;99.90;;;;;;4405496;32;20194;-73
2021/12/08 13:19:47;;;;;;;53.77;51.47;;;6.90;99.90;;;;;;4400623;32;20190;-72
2021/12/08 13:22:44;;;;;;;53.73;51.03;;;6.80;99.90;;;;;;4394168;32;20220;-70
2021/12/08 13:25:28;;;;;;;48.43;46.23;;;6.90;99.90;;;;;;4398746;32;20177;-70